Langlois, OR (97450)

10:07 AM PST on February 11, 2016 (GMT -0800)
Bandon South | | Change Station
CLOSE
Current Station
Personal Weather Station
Location: Bandon, OR
Elevation: 82 ft
Nearby Weather Stations

Elev 82 ft 42.99 °N, 124.43 °W | Updated 9 seconds ago

Mostly Cloudy
Mostly Cloudy
58.3 °F
Feels Like 58.3 °F
N
2.7
Wind Variable Wind from SSW
Gusts 4.9 mph

Today
High -- | Low -- °F
--% Chance of Precip.
Yesterday
High -- | Low -- °F
Precip. -- in
Pressure 30.13 in
Visibility 10.0 miles
Clouds Overcast 9500 ft
Dew Point 54 °F
Humidity 86%
Rainfall 0.02 in
Snow Depth Not available.
7:21 AM 5:43 PM
Waxing Crescent, 13% visible
METAR KOTH 111755Z 14005KT 10SM OVC095 14/12 A3013 RMK AO1 60006 10140 20120 54000
Pressure 30.13 in
Visibility 10.0 miles
Clouds Overcast 9500 ft
Dew Point 54 °F
Humidity 86%
Rainfall 0.02 in
Snow Depth Not available.
7:21 AM 5:43 PM
Waxing Crescent, 13% visible
METAR KOTH 111755Z 14005KT 10SM OVC095 14/12 A3013 RMK AO1 60006 10140 20120 54000

10-Day Weather Forecast

Almanac

Astronomy

Feb. 11, 2016 Rise Set
Actual Time
Civil Twilight
Nautical Twilight
Astronomical Twilight
Moon
Length of Visible Light
Length of Day
Tomorrow will be .
, % of the Moon is Illuminated

Today's Extremes

State Highs State Lows

Community

WunderPhotos

Upload Photos

1,892,121 photos uploaded!

WunderBlog® & News

Nearby

Air Quality

  Air Quality AQ Index Pollutant
Not available.

Snow Depth

Station Depth Elevation

Earthquake Activity

City Distance Mag. Time & Date
Minimum magnitude displayed is 2.5.

Coastal Water Temperatures

Place Temperature

Stations

Nearby Weather Stations

Station Location Temp. Windchill Dew Point Humidity Wind Precip. Elev Updated Type
                   

Watches & Warnings

There are currently no watches in effect.